createdAt,value
2018-10-11T00:01:25.454Z,87.40
2018-10-11T00:03:51.710Z,87.00
2018-10-11T00:06:18.734Z,87.30
2018-10-11T00:08:46.251Z,84.40
2018-10-11T00:11:13.224Z,86.10
2018-10-11T00:13:40.223Z,87.10
2018-10-11T00:16:07.206Z,87.40
2018-10-11T00:18:34.192Z,84.80
2018-10-11T00:21:01.202Z,86.80
2018-10-11T00:23:28.159Z,87.40
2018-10-11T00:25:55.273Z,87.20
2018-10-11T00:28:22.255Z,88.00
2018-10-11T00:30:49.290Z,85.10
2018-10-11T00:33:16.178Z,87.80
2018-10-11T00:35:43.174Z,87.30
2018-10-11T00:38:10.138Z,86.90
2018-10-11T00:40:37.115Z,86.90
2018-10-11T00:43:04.090Z,87.00
2018-10-11T00:45:31.067Z,87.20
2018-10-11T00:47:58.022Z,87.40
2018-10-11T00:50:25.006Z,87.00
2018-10-11T00:52:51.981Z,87.00
2018-10-11T00:55:18.960Z,86.40
2018-10-11T00:57:45.946Z,88.20
2018-10-11T01:00:12.901Z,88.80
2018-10-11T01:02:40.127Z,89.00
2018-10-11T01:05:07.125Z,89.30
2018-10-11T01:07:34.093Z,89.30
2018-10-11T01:10:01.700Z,89.40
2018-10-11T01:12:28.659Z,89.50
2018-10-11T01:14:55.635Z,89.70
2018-10-11T01:17:23.065Z,89.40
2018-10-11T01:19:50.026Z,89.40
2018-10-11T01:22:16.985Z,89.30
2018-10-11T01:24:43.970Z,89.40
2018-10-11T01:27:10.950Z,89.10
2018-10-11T01:29:38.064Z,89.00
2018-10-11T01:32:05.452Z,89.60
2018-10-11T01:34:32.438Z,89.70
2018-10-11T01:36:59.430Z,90.00
2018-10-11T01:39:26.390Z,90.10
2018-10-11T01:41:53.403Z,89.80
2018-10-11T01:44:20.358Z,89.30
2018-10-11T01:46:47.318Z,89.90
2018-10-11T01:49:14.326Z,89.80
2018-10-11T01:51:41.302Z,89.10
2018-10-11T01:54:08.266Z,89.50
2018-10-11T01:56:35.311Z,90.00
2018-10-11T01:59:02.245Z,90.40
2018-10-11T02:01:29.251Z,90.30
2018-10-11T02:03:56.255Z,90.60
2018-10-11T02:06:23.282Z,90.60
2018-10-11T02:08:50.264Z,90.20
2018-10-11T02:11:17.945Z,90.00
2018-10-11T02:13:44.930Z,90.00
2018-10-11T02:16:12.253Z,90.10
2018-10-11T02:18:39.340Z,90.40
2018-10-11T02:21:06.426Z,90.20
2018-10-11T02:23:33.473Z,90.00
2018-10-11T02:26:00.485Z,89.60
2018-10-11T02:28:27.459Z,90.00
2018-10-11T02:30:54.433Z,90.00
2018-10-11T02:33:21.433Z,90.00
2018-10-11T02:35:48.385Z,90.20
2018-10-11T02:38:15.401Z,90.10
2018-10-11T02:40:42.482Z,90.10
2018-10-11T02:43:09.453Z,90.30
2018-10-11T02:45:36.414Z,90.30
2018-10-11T02:48:03.455Z,88.60
2018-10-11T02:50:30.402Z,90.30
2018-10-11T02:52:57.365Z,90.60
2018-10-11T02:55:25.479Z,90.60
2018-10-11T02:58:04.133Z,90.30
2018-10-11T03:00:31.968Z,90.20
2018-10-11T03:03:00.741Z,90.20
2018-10-11T03:05:27.728Z,90.50
2018-10-11T03:07:54.720Z,90.60
2018-10-11T03:10:21.705Z,90.50
2018-10-11T03:12:49.229Z,90.50
2018-10-11T03:15:16.209Z,90.50
2018-10-11T03:17:43.182Z,90.30
2018-10-11T03:20:10.157Z,90.50
2018-10-11T03:22:37.147Z,90.60
2018-10-11T03:25:04.214Z,89.60
2018-10-11T03:27:31.133Z,90.40
2018-10-11T03:29:58.126Z,90.40
2018-10-11T03:32:25.103Z,90.50
2018-10-11T03:34:52.056Z,90.40
2018-10-11T03:37:19.048Z,90.60
2018-10-11T03:39:46.010Z,90.40
2018-10-11T03:42:12.974Z,88.40
2018-10-11T03:44:39.961Z,90.40
2018-10-11T03:47:06.930Z,90.70
2018-10-11T03:49:33.896Z,90.70
2018-10-11T03:52:00.881Z,90.80
2018-10-11T03:54:27.866Z,90.80
2018-10-11T03:56:55.000Z,90.90
2018-10-11T03:59:21.985Z,90.80
2018-10-11T04:01:48.950Z,90.80
2018-10-11T04:04:15.875Z,90.60
2018-10-11T04:06:42.849Z,90.60
2018-10-11T04:09:09.837Z,90.80
2018-10-11T04:11:36.785Z,90.90
2018-10-11T04:14:04.384Z,90.70
2018-10-11T04:16:31.314Z,90.70
2018-10-11T04:18:58.246Z,91.00
2018-10-11T04:21:25.246Z,91.10
2018-10-11T04:23:52.193Z,91.10
2018-10-11T04:26:19.134Z,90.80
2018-10-11T04:28:46.107Z,91.20
2018-10-11T04:31:13.018Z,91.10
2018-10-11T04:33:39.947Z,91.10
2018-10-11T04:36:06.951Z,91.00
2018-10-11T04:38:33.838Z,91.30
2018-10-11T04:41:00.782Z,91.30
2018-10-11T04:43:27.749Z,91.20
2018-10-11T04:45:54.717Z,91.40
2018-10-11T04:48:21.658Z,91.50
2018-10-11T04:50:48.646Z,91.40
2018-10-11T04:53:15.614Z,91.40
2018-10-11T04:55:43.557Z,91.30
2018-10-11T04:58:10.634Z,91.40
2018-10-11T05:00:37.637Z,91.60
2018-10-11T05:03:04.906Z,91.00
2018-10-11T05:05:31.862Z,90.80
2018-10-11T05:07:58.823Z,89.00
2018-10-11T05:10:25.762Z,90.70
2018-10-11T05:12:52.736Z,89.00
2018-10-11T05:15:20.118Z,91.00
2018-10-11T05:17:47.918Z,90.90
2018-10-11T05:20:14.913Z,91.00
2018-10-11T05:22:41.856Z,90.30
2018-10-11T05:25:08.809Z,90.70
2018-10-11T05:27:35.770Z,89.70
2018-10-11T05:30:02.862Z,89.80
2018-10-11T05:32:29.878Z,90.00
2018-10-11T05:34:56.854Z,90.00
2018-10-11T05:37:23.787Z,90.30
2018-10-11T05:39:50.722Z,90.70
2018-10-11T05:42:17.667Z,90.70
2018-10-11T05:44:44.598Z,91.00
2018-10-11T05:47:11.603Z,90.40
2018-10-11T05:49:38.611Z,90.60
2018-10-11T05:52:06.026Z,90.90
2018-10-11T05:54:32.954Z,90.90
2018-10-11T05:56:59.902Z,91.00
2018-10-11T05:59:26.839Z,90.80
2018-10-11T06:01:53.761Z,91.20
2018-10-11T06:04:20.770Z,90.70
2018-10-11T06:06:48.320Z,91.10
2018-10-11T06:09:15.691Z,90.90
2018-10-11T06:11:43.288Z,90.70
2018-10-11T06:14:10.692Z,90.90
2018-10-11T06:16:38.207Z,91.00
2018-10-11T06:19:05.426Z,90.80
2018-10-11T06:21:32.391Z,90.10
2018-10-11T06:23:59.346Z,90.00
2018-10-11T06:26:26.310Z,89.40
2018-10-11T06:28:53.257Z,89.30
2018-10-11T06:31:20.323Z,89.50
2018-10-11T06:33:47.293Z,89.10
2018-10-11T06:36:14.788Z,89.10
2018-10-11T06:38:41.683Z,88.30
2018-10-11T06:41:08.655Z,90.40
2018-10-11T06:43:35.723Z,90.30
2018-10-11T06:46:02.678Z,90.20
2018-10-11T06:48:29.637Z,90.30
2018-10-11T06:50:56.577Z,89.40
2018-10-11T06:53:23.508Z,88.80
2018-10-11T06:55:50.491Z,88.00
2018-10-11T06:58:17.430Z,86.80
2018-10-11T07:00:44.370Z,86.30
2018-10-11T07:03:11.336Z,86.10
2018-10-11T07:05:38.318Z,85.70
2018-10-11T07:08:05.333Z,86.70
2018-10-11T07:10:32.322Z,86.00
2018-10-11T07:12:59.319Z,85.30
2018-10-11T07:15:26.628Z,84.80
2018-10-11T07:17:53.958Z,84.40
2018-10-11T07:20:20.894Z,83.70
2018-10-11T07:22:47.838Z,83.20
2018-10-11T07:25:14.813Z,83.00
2018-10-11T07:27:41.764Z,83.00
2018-10-11T07:30:09.752Z,82.50
2018-10-11T07:32:35.772Z,82.20
2018-10-11T07:35:02.754Z,81.70
2018-10-11T07:37:29.641Z,81.70
2018-10-11T07:39:56.601Z,80.80
2018-10-11T07:42:23.534Z,81.00
2018-10-11T07:44:50.502Z,81.00
2018-10-11T07:47:17.489Z,79.90
2018-10-11T07:49:44.400Z,76.70
2018-10-11T07:52:11.325Z,77.30
2018-10-11T07:54:38.454Z,78.50
2018-10-11T07:57:05.611Z,78.00
2018-10-11T07:59:32.579Z,77.80
2018-10-11T08:01:59.527Z,77.90
2018-10-11T08:04:26.475Z,77.30
2018-10-11T08:06:53.436Z,76.40
2018-10-11T08:09:20.391Z,76.80
2018-10-11T08:11:47.511Z,73.70
2018-10-11T08:14:14.722Z,75.50
2018-10-11T08:16:41.826Z,75.10
2018-10-11T08:19:09.464Z,75.00
2018-10-11T08:21:36.239Z,74.30
2018-10-11T08:24:03.199Z,74.20
2018-10-11T08:26:30.606Z,74.00
2018-10-11T08:28:57.067Z,73.00
2018-10-11T08:31:24.031Z,72.80
2018-10-11T08:33:50.986Z,72.40
2018-10-11T08:36:17.957Z,69.70
2018-10-11T08:38:44.866Z,71.00
2018-10-11T08:41:11.814Z,69.80
2018-10-11T08:43:38.892Z,69.40
2018-10-11T08:46:05.758Z,69.00
2018-10-11T08:48:32.743Z,68.40
2018-10-11T08:50:59.717Z,67.10
2018-10-11T08:53:26.791Z,62.80
2018-10-11T08:55:53.721Z,52.60
2018-10-11T08:58:20.646Z,42.50
2018-10-11T09:00:47.602Z,37.40
2018-10-11T09:03:14.570Z,35.40
2018-10-11T09:05:41.572Z,33.60
2018-10-11T09:08:08.427Z,32.60
2018-10-11T09:10:38.346Z,32.10
2018-10-11T09:13:02.298Z,32.50
2018-10-11T09:15:29.259Z,31.80
2018-10-11T09:20:21.386Z,31.40
2018-10-11T09:22:48.466Z,30.90
2018-10-11T09:25:15.813Z,30.20
2018-10-11T09:27:42.361Z,30.10
2018-10-11T09:30:09.347Z,28.00
2018-10-11T09:32:36.291Z,28.90
2018-10-11T09:35:03.231Z,28.90
2018-10-11T09:37:30.358Z,28.60
2018-10-11T09:39:57.302Z,29.10
2018-10-11T09:42:24.235Z,29.30
2018-10-11T09:44:51.191Z,29.80
2018-10-11T09:47:18.101Z,29.50
2018-10-11T09:49:45.026Z,29.20
2018-10-11T09:52:11.970Z,28.70
2018-10-11T09:54:38.954Z,30.00
2018-10-11T09:57:23.619Z,29.90
2018-10-11T09:59:50.567Z,30.20
2018-10-11T10:02:17.525Z,29.30
2018-10-11T10:04:45.776Z,28.90
2018-10-11T10:07:12.745Z,27.80
2018-10-11T10:09:40.334Z,27.50
2018-10-11T10:12:08.171Z,28.10
2018-10-11T10:14:35.235Z,29.00
2018-10-11T10:17:02.204Z,29.00
2018-10-11T10:19:29.175Z,29.10
2018-10-11T10:21:56.432Z,28.90
2018-10-11T10:24:23.415Z,28.60
2018-10-11T10:26:50.403Z,28.80
2018-10-11T10:29:18.222Z,28.70
2018-10-11T10:31:45.154Z,26.80
2018-10-11T10:34:12.124Z,28.90
2018-10-11T10:36:39.050Z,27.90
2018-10-11T10:39:06.995Z,28.40
2018-10-11T10:41:33.943Z,28.50
2018-10-11T10:44:00.899Z,28.60
2018-10-11T10:46:27.858Z,28.20
2018-10-11T10:48:54.821Z,28.80
2018-10-11T10:51:21.871Z,29.30
2018-10-11T10:53:48.810Z,29.50
2018-10-11T10:56:15.778Z,29.70
2018-10-11T10:58:42.711Z,31.00
2018-10-11T11:01:09.634Z,31.20
2018-10-11T11:03:36.602Z,32.50
2018-10-11T11:06:03.539Z,32.80
2018-10-11T11:08:30.566Z,32.60
2018-10-11T11:10:57.514Z,33.50
2018-10-11T11:13:24.466Z,34.10
2018-10-11T11:15:51.418Z,33.70
2018-10-11T11:18:18.391Z,33.90
2018-10-11T11:20:45.318Z,34.90
2018-10-11T11:23:12.762Z,34.60
2018-10-11T11:25:39.706Z,35.70
2018-10-11T11:28:06.634Z,35.90
2018-10-11T11:30:33.582Z,34.90
2018-10-11T11:33:00.612Z,35.30
2018-10-11T11:35:27.678Z,35.30
2018-10-11T11:37:54.618Z,35.60
2018-10-11T11:40:21.591Z,34.90
2018-10-11T11:42:48.529Z,35.40
2018-10-11T11:45:15.470Z,35.50
2018-10-11T11:47:42.415Z,35.50
2018-10-11T11:50:09.387Z,34.80
2018-10-11T11:52:36.355Z,35.30
2018-10-11T11:55:03.327Z,34.70
2018-10-11T11:57:30.238Z,34.60
2018-10-11T11:59:57.178Z,34.50
2018-10-11T12:02:24.138Z,34.70
2018-10-11T12:04:51.080Z,35.20
2018-10-11T12:07:18.001Z,34.20
2018-10-11T12:09:44.963Z,35.10
2018-10-11T12:12:53.734Z,34.70
2018-10-11T12:15:22.109Z,34.50
2018-10-11T12:17:49.682Z,34.70
2018-10-11T12:20:16.639Z,34.00
2018-10-11T12:22:43.614Z,35.90
2018-10-11T12:25:11.112Z,37.00
2018-10-11T12:27:38.047Z,36.80
2018-10-11T12:30:05.029Z,37.40
2018-10-11T12:32:31.946Z,37.10
2018-10-11T12:34:58.883Z,37.00
2018-10-11T12:37:25.845Z,38.70
2018-10-11T12:39:52.774Z,39.30
2018-10-11T12:42:19.759Z,39.50
2018-10-11T12:44:46.755Z,38.10
2018-10-11T12:47:13.702Z,38.00
2018-10-11T12:49:44.223Z,37.40
2018-10-11T12:52:07.706Z,38.50
2018-10-11T12:54:34.549Z,38.10
2018-10-11T12:57:01.586Z,38.70
2018-10-11T12:59:28.447Z,38.80
2018-10-11T13:01:55.398Z,39.80
2018-10-11T13:04:22.339Z,40.50
2018-10-11T13:06:49.331Z,40.70
2018-10-11T13:09:16.336Z,41.10
2018-10-11T13:11:43.234Z,42.40
2018-10-11T13:14:10.205Z,41.10
2018-10-11T13:16:37.171Z,42.60
2018-10-11T13:19:04.170Z,42.20
2018-10-11T13:21:31.129Z,42.20
2018-10-11T13:23:58.048Z,42.70
2018-10-11T13:26:25.708Z,42.50
2018-10-11T13:28:52.703Z,42.40
2018-10-11T13:31:19.609Z,42.10
2018-10-11T13:33:46.545Z,42.70
2018-10-11T13:36:13.488Z,42.80
2018-10-11T13:38:40.435Z,43.20
2018-10-11T13:41:07.441Z,43.40
2018-10-11T13:43:34.366Z,44.60
2018-10-11T13:46:02.995Z,45.30
2018-10-11T13:48:28.425Z,44.50
2018-10-11T13:50:55.504Z,45.30
2018-10-11T13:53:24.736Z,45.50
2018-10-11T13:55:54.895Z,45.90
2018-10-11T13:58:16.398Z,44.10
2018-10-11T14:00:43.355Z,45.50
2018-10-11T14:03:10.373Z,44.80
2018-10-11T14:05:37.327Z,44.40
2018-10-11T14:08:04.234Z,45.10
2018-10-11T14:10:31.262Z,44.10
2018-10-11T14:12:58.146Z,44.80
2018-10-11T14:15:25.090Z,45.50
2018-10-11T14:17:52.102Z,45.70
2018-10-11T14:20:18.983Z,45.30
2018-10-11T14:22:45.939Z,45.10
2018-10-11T14:25:12.886Z,45.10
2018-10-11T14:27:40.680Z,45.20
2018-10-11T14:30:07.696Z,45.30
2018-10-11T14:32:34.634Z,45.70
2018-10-11T14:35:01.624Z,45.70
2018-10-11T14:37:28.555Z,46.40
2018-10-11T14:39:55.492Z,46.10
2018-10-11T14:42:22.438Z,46.20
2018-10-11T14:44:49.370Z,46.50
2018-10-11T14:47:16.322Z,47.50
2018-10-11T14:49:43.282Z,46.40
2018-10-11T14:52:10.239Z,46.00
2018-10-11T14:54:37.167Z,46.30
2018-10-11T14:57:05.506Z,45.50
2018-10-11T14:59:32.437Z,46.00
2018-10-11T15:01:59.526Z,49.80
2018-10-11T15:04:26.547Z,48.80
2018-10-11T15:06:53.667Z,51.20
2018-10-11T15:09:20.625Z,53.10
2018-10-11T15:11:47.644Z,53.00
2018-10-11T15:14:14.562Z,53.50
2018-10-11T15:16:41.517Z,54.00
2018-10-11T15:19:08.474Z,53.10
2018-10-11T15:21:35.432Z,53.20
2018-10-11T15:24:02.556Z,52.90
2018-10-11T15:26:29.442Z,53.70
2018-10-11T15:28:56.879Z,55.30
2018-10-11T15:31:23.965Z,54.50
2018-10-11T15:33:50.926Z,53.10
2018-10-11T15:36:17.884Z,54.20
2018-10-11T15:38:44.849Z,56.00
2018-10-11T15:41:11.775Z,56.30
2018-10-11T15:43:38.720Z,55.20
2018-10-11T15:46:05.699Z,55.20
2018-10-11T15:48:32.746Z,56.80
2018-10-11T15:50:59.674Z,56.80
2018-10-11T15:53:26.623Z,56.40
2018-10-11T15:55:53.564Z,56.10
2018-10-11T15:58:20.557Z,58.60
2018-10-11T16:00:47.429Z,59.20
2018-10-11T16:03:14.375Z,59.60
2018-10-11T16:05:41.506Z,59.10
2018-10-11T16:08:08.414Z,59.20
2018-10-11T16:10:35.383Z,58.20
2018-10-11T16:13:02.372Z,58.40
2018-10-11T16:15:29.342Z,58.30
2018-10-11T16:17:56.307Z,60.50
2018-10-11T16:20:23.267Z,59.50
2018-10-11T16:22:50.223Z,60.40
2018-10-11T16:25:17.175Z,60.90
2018-10-11T16:27:44.118Z,61.00
2018-10-11T16:30:11.278Z,62.00
2018-10-11T16:32:38.242Z,62.40
2018-10-11T16:35:05.170Z,61.30
2018-10-11T16:37:32.101Z,61.10
2018-10-11T16:39:59.070Z,60.90
2018-10-11T16:42:26.022Z,61.90
2018-10-11T16:44:52.962Z,61.70
2018-10-11T16:47:19.932Z,62.60
2018-10-11T16:49:47.021Z,61.10
2018-10-11T16:52:13.915Z,62.30
2018-10-11T16:54:42.758Z,62.80
2018-10-11T16:57:10.493Z,62.40
2018-10-11T16:59:37.482Z,63.40
2018-10-11T17:02:04.438Z,62.70
2018-10-11T17:04:31.423Z,63.50
2018-10-11T17:06:58.313Z,65.20
2018-10-11T17:09:25.311Z,65.30
2018-10-11T17:11:52.450Z,64.50
2018-10-11T17:14:19.373Z,66.70
2018-10-11T17:16:46.329Z,66.30
2018-10-11T17:19:13.267Z,66.30
2018-10-11T17:21:40.269Z,67.30
2018-10-11T17:24:07.163Z,66.40
2018-10-11T17:26:34.131Z,66.90
2018-10-11T17:29:01.075Z,66.10
2018-10-11T17:31:28.482Z,65.80
2018-10-11T17:33:55.439Z,65.50
2018-10-11T17:36:22.386Z,66.20
2018-10-11T17:38:49.356Z,64.00
2018-10-11T17:41:16.323Z,67.50
2018-10-11T17:43:43.466Z,67.40
2018-10-11T17:46:10.406Z,65.90
2018-10-11T17:48:37.831Z,68.60
2018-10-11T17:51:04.759Z,69.10
2018-10-11T17:53:31.734Z,68.80
2018-10-11T17:55:58.674Z,68.20
2018-10-11T17:58:25.614Z,67.50
2018-10-11T18:00:52.558Z,67.30
2018-10-11T18:03:19.575Z,68.50
2018-10-11T18:05:46.583Z,70.00
2018-10-11T18:08:14.059Z,69.70
2018-10-11T18:10:41.007Z,70.40
2018-10-11T18:13:08.079Z,69.20
2018-10-11T18:15:35.071Z,70.50
2018-10-11T18:18:01.997Z,69.40
2018-10-11T18:20:28.991Z,70.30
2018-10-11T18:22:55.949Z,70.10
2018-10-11T18:25:22.955Z,71.30
2018-10-11T18:27:49.902Z,69.90
2018-10-11T18:30:16.851Z,70.70
2018-10-11T18:32:44.414Z,71.20
2018-10-11T18:35:11.370Z,71.30
2018-10-11T18:37:38.362Z,73.40
2018-10-11T18:40:05.326Z,76.60
2018-10-11T18:42:32.271Z,75.40
2018-10-11T18:44:59.235Z,75.50
2018-10-11T18:47:26.199Z,74.90
2018-10-11T18:49:53.183Z,74.80
2018-10-11T18:52:20.139Z,74.20
2018-10-11T18:54:47.088Z,73.40
2018-10-11T18:57:14.035Z,74.80
2018-10-11T18:59:40.997Z,74.60
2018-10-11T19:02:07.943Z,74.00
2018-10-11T19:04:34.925Z,73.70
2018-10-11T19:07:01.848Z,75.20
2018-10-11T19:09:28.790Z,77.10
2018-10-11T19:11:55.731Z,73.80
2018-10-11T19:14:22.696Z,72.80
2018-10-11T19:16:49.634Z,73.70
2018-10-11T19:19:16.566Z,73.70
2018-10-11T19:21:43.555Z,73.30
2018-10-11T19:24:10.500Z,73.10
2018-10-11T19:26:37.436Z,72.00
2018-10-11T19:29:04.394Z,72.20
2018-10-11T19:31:31.359Z,73.70
2018-10-11T19:33:59.385Z,73.70
2018-10-11T19:36:26.355Z,74.20
2018-10-11T19:38:53.301Z,74.50
2018-10-11T19:41:20.252Z,74.80
2018-10-11T19:43:47.239Z,75.00
2018-10-11T19:46:14.313Z,76.00
2018-10-11T19:48:41.249Z,76.40
2018-10-11T19:51:08.209Z,75.40
2018-10-11T19:53:35.177Z,74.20
2018-10-11T19:56:02.105Z,73.70
2018-10-11T19:58:29.074Z,74.10
2018-10-11T20:00:56.031Z,74.70
2018-10-11T20:03:22.977Z,74.70
2018-10-11T20:05:49.923Z,73.70
2018-10-11T20:08:16.974Z,74.00
2018-10-11T20:10:43.822Z,74.00
2018-10-11T20:13:10.758Z,73.50
2018-10-11T20:15:37.698Z,73.50
2018-10-11T20:18:05.015Z,72.90
2018-10-11T20:20:31.978Z,74.50
2018-10-11T20:22:58.933Z,72.70
2018-10-11T20:25:25.883Z,73.60
2018-10-11T20:27:52.850Z,73.40
2018-10-11T20:30:19.792Z,73.20
2018-10-11T20:32:46.737Z,73.20
2018-10-11T20:35:14.554Z,73.90
2018-10-11T20:37:41.504Z,74.50
2018-10-11T20:40:08.438Z,74.20
2018-10-11T20:42:35.383Z,75.90
2018-10-11T20:45:02.301Z,74.90
2018-10-11T20:47:29.250Z,76.20
2018-10-11T20:49:56.223Z,76.30
2018-10-11T20:52:23.168Z,76.50
2018-10-11T20:54:50.084Z,77.20
2018-10-11T20:57:17.066Z,76.60
2018-10-11T20:59:44.007Z,76.60
2018-10-11T21:02:10.955Z,77.10
2018-10-11T21:04:37.918Z,77.30
2018-10-11T21:07:05.398Z,77.80
2018-10-11T21:09:32.371Z,77.80
2018-10-11T21:11:59.379Z,77.50
2018-10-11T21:14:26.345Z,77.50
2018-10-11T21:16:53.311Z,77.40
2018-10-11T21:19:20.302Z,77.70
2018-10-11T21:21:47.764Z,78.50
2018-10-11T21:24:14.256Z,78.20
2018-10-11T21:26:41.254Z,78.50
2018-10-11T21:29:08.238Z,78.10
2018-10-11T21:31:35.197Z,77.80
2018-10-11T21:34:02.163Z,77.60
2018-10-11T21:36:30.476Z,77.80
2018-10-11T21:38:57.423Z,78.50
2018-10-11T21:41:24.413Z,79.20
2018-10-11T21:43:51.367Z,78.40
2018-10-11T21:46:18.386Z,78.70
2018-10-11T21:48:45.302Z,79.00
2018-10-11T21:51:12.250Z,79.50
2018-10-11T21:53:39.546Z,79.80
2018-10-11T21:56:06.577Z,80.20
2018-10-11T21:58:33.513Z,80.40
2018-10-11T22:01:06.258Z,80.00
2018-10-11T22:03:33.237Z,79.70
2018-10-11T22:06:00.193Z,79.60
2018-10-11T22:08:27.179Z,79.60
2018-10-11T22:10:54.116Z,79.90
2018-10-11T22:13:21.075Z,79.80
2018-10-11T22:15:48.021Z,79.70
2018-10-11T22:18:15.005Z,79.80
2018-10-11T22:20:42.047Z,80.10
2018-10-11T22:23:08.956Z,80.10
2018-10-11T22:25:35.924Z,80.20
2018-10-11T22:28:02.862Z,80.30
2018-10-11T22:30:29.822Z,80.50
2018-10-11T22:32:56.799Z,79.30
2018-10-11T22:35:23.902Z,78.90
2018-10-11T22:37:55.801Z,78.90
2018-10-11T22:40:22.775Z,78.90
2018-10-11T22:42:49.747Z,77.90
2018-10-11T22:45:16.687Z,78.70
2018-10-11T22:47:43.655Z,77.30
2018-10-11T22:50:10.614Z,78.40
2018-10-11T22:52:37.560Z,77.30
2018-10-11T22:55:04.570Z,79.60
2018-10-11T22:57:31.538Z,80.30
2018-10-11T22:59:58.502Z,80.40
2018-10-11T23:02:25.481Z,79.40
2018-10-11T23:04:52.435Z,79.50
2018-10-11T23:07:19.385Z,79.60
2018-10-11T23:09:46.752Z,80.00
2018-10-11T23:12:13.703Z,79.50
2018-10-11T23:14:40.774Z,79.20
2018-10-11T23:17:07.691Z,78.70
2018-10-11T23:19:34.633Z,78.80
2018-10-11T23:22:01.594Z,78.10
2018-10-11T23:24:28.580Z,77.60
2018-10-11T23:26:55.667Z,76.80
2018-10-11T23:29:22.615Z,76.60
2018-10-11T23:31:49.598Z,75.80
2018-10-11T23:34:16.550Z,75.50
2018-10-11T23:36:43.533Z,75.40
2018-10-11T23:39:11.687Z,75.40
2018-10-11T23:41:39.058Z,75.80
2018-10-11T23:44:06.059Z,75.40
2018-10-11T23:46:33.043Z,75.50
2018-10-11T23:48:59.998Z,75.60
2018-10-11T23:51:26.954Z,75.80
2018-10-11T23:53:53.934Z,77.30
2018-10-11T23:56:20.897Z,76.70
2018-10-11T23:58:47.861Z,76.00
